Florence Spirit — CFBC — position and weather

sailwx.info

Track history (hours):
 
Tides and Currents Weather Stations Pressure Air Temp Water Temp Dewpoint Dewpoint Depression Visibility Wind Speed Wind Dir Waves Ship Positions

Florence Spirit

Last reported at 2017-Nov-28 12:41 UTC. Time now 2017-Dec-16 15:11 UTC.
Position N 45°14' W 074°13'.
Warning: this ship's position is 18 days out of date.

Length 136 m; draft 8 m.

Type: Cargo ship. MMSI: 316001940.

Date/timePositionNaut miles runAvg speedWind from/ knotsBaromVisibWave heightAir tempDewpointWater temp
2017-Nov-28 12:41N 45°14' W 074°13'210.2
2017-Nov-28 12:30N 45°14' W 074°11'4 8.7
2017-Nov-28 12:00N 45°13' W 074°04'4 8.5
2017-Nov-28 11:30N 45°15' W 073°59'4 7.9
2017-Nov-28 11:00N 45°18' W 073°56'0 0.4
2017-Nov-28 10:30N 45°18' W 073°56'1 1.5
2017-Nov-28 10:00N 45°19' W 073°55'0 0.1
2017-Nov-28 09:30N 45°19' W 073°55'0 0.8
2017-Nov-28 09:00N 45°19' W 073°55'2 3.6
2017-Nov-28 08:30N 45°21' W 073°53'5 9.1
2017-Nov-28 08:00N 45°23' W 073°48'4 8.9
2017-Nov-28 07:30N 45°25' W 073°42'3 5.6
2017-Nov-28 07:00N 45°24' W 073°38'3 5.0
2017-Nov-28 06:30N 45°24' W 073°35'1 0.9
2017-Nov-28 05:55N 45°24' W 073°34'1 3.2
2017-Nov-28 05:29N 45°25' W 073°32'5 5.1
2017-Nov-28 04:30N 45°30' W 073°31'0 0.7
2017-Nov-28 03:51N 45°30' W 073°31'  
2017-Nov-23 06:57N 47°16' W 052°37'711.8
2017-Nov-23 06:21N 47°23' W 052°35'511.3
2017-Nov-23 05:54N 47°28' W 052°33'510.8
2017-Nov-23 05:27N 47°33' W 052°33'511.3
2017-Nov-23 05:00N 47°38' W 052°35'13 4.7
2017-Nov-23 02:17N 47°37' W 052°54'  
2017-Nov-19 09:00N 47°35' W 052°57'0 0.1
2017-Nov-19 08:18N 47°35' W 052°57'0 0.0
2017-Nov-19 04:33N 47°35' W 052°57'0 0.0
2017-Nov-19 01:57N 47°35' W 052°57'0 0.0
2017-Nov-19 01:06N 47°35' W 052°57'0 0.1
2017-Nov-19 00:39N 47°35' W 052°57'0 0.0
2017-Nov-19 00:09N 47°35' W 052°57'0 0.0
2017-Nov-18 22:36N 47°35' W 052°57'0 0.0
2017-Nov-18 22:30N 47°35' W 052°57'0 0.0
2017-Nov-18 21:54N 47°35' W 052°57'  
Track history (hours):
 
Tides and Currents Weather Stations Pressure Air Temp Water Temp Dewpoint Dewpoint Depression Visibility Wind Speed Wind Dir Waves Ship Positions

Florence Spirit

Last reported at 2017-Nov-28 12:41 UTC. Time now 2017-Dec-16 15:11 UTC.
Position N 45°14' W 074°13'.
Warning: this ship's position is 18 days out of date.

Length 136 m; draft 8 m.

Type: Cargo ship. MMSI: 316001940.

Date/timePositionNaut miles runAvg speedWind from/ knotsBaromVisibWave heightAir tempDewpointWater temp
2017-Nov-28 12:41N 45°14' W 074°13'210.2
2017-Nov-28 12:30N 45°14' W 074°11'4 8.7
2017-Nov-28 12:00N 45°13' W 074°04'4 8.5
2017-Nov-28 11:30N 45°15' W 073°59'4 7.9
2017-Nov-28 11:00N 45°18' W 073°56'0 0.4
2017-Nov-28 10:30N 45°18' W 073°56'1 1.5
2017-Nov-28 10:00N 45°19' W 073°55'0 0.1
2017-Nov-28 09:30N 45°19' W 073°55'0 0.8
2017-Nov-28 09:00N 45°19' W 073°55'2 3.6
2017-Nov-28 08:30N 45°21' W 073°53'5 9.1
2017-Nov-28 08:00N 45°23' W 073°48'4 8.9
2017-Nov-28 07:30N 45°25' W 073°42'3 5.6
2017-Nov-28 07:00N 45°24' W 073°38'3 5.0
2017-Nov-28 06:30N 45°24' W 073°35'1 0.9
2017-Nov-28 05:55N 45°24' W 073°34'1 3.2
2017-Nov-28 05:29N 45°25' W 073°32'5 5.1
2017-Nov-28 04:30N 45°30' W 073°31'0 0.7
2017-Nov-28 03:51N 45°30' W 073°31'  
2017-Nov-23 06:57N 47°16' W 052°37'711.8
2017-Nov-23 06:21N 47°23' W 052°35'511.3
2017-Nov-23 05:54N 47°28' W 052°33'510.8
2017-Nov-23 05:27N 47°33' W 052°33'511.3
2017-Nov-23 05:00N 47°38' W 052°35'13 4.7
2017-Nov-23 02:17N 47°37' W 052°54'  
2017-Nov-19 09:00N 47°35' W 052°57'0 0.1
2017-Nov-19 08:18N 47°35' W 052°57'0 0.0
2017-Nov-19 04:33N 47°35' W 052°57'0 0.0
2017-Nov-19 01:57N 47°35' W 052°57'0 0.0
2017-Nov-19 01:06N 47°35' W 052°57'0 0.1
2017-Nov-19 00:39N 47°35' W 052°57'0 0.0
2017-Nov-19 00:09N 47°35' W 052°57'0 0.0
2017-Nov-18 22:36N 47°35' W 052°57'0 0.0
2017-Nov-18 22:30N 47°35' W 052°57'0 0.0
2017-Nov-18 21:54N 47°35' W 052°57'  

Dump ship's entire track history